Time;durP1;ratioP1;P1;durP2;ratioP2;P2;SDS_P1;SDS_P2;PMS_P1;PMS_P2;Temp;Humidity;BMP_temperature;BMP_pressure;BME280_temperature;BME280_humidity;BME280_pressure;Samples;Min_cycle;Max_cycle;Signal;HPM_P1;HPM_P2
2023/01/12 00:01:25;;;;;;;16.98;2.55;;;7.60;99.90;;;;;;5094280;28;20038;-60
2023/01/12 00:03:52;;;;;;;20.70;3.50;;;7.70;99.90;;;;;;5094423;28;20043;-61
2023/01/12 00:06:18;;;;;;;23.63;3.30;;;7.80;99.90;;;;;;5094187;28;20106;-60
2023/01/12 00:08:45;;;;;;;23.85;4.32;;;7.70;99.90;;;;;;5094029;28;20063;-61
2023/01/12 00:11:11;;;;;;;21.33;3.83;;;7.90;99.90;;;;;;5094106;28;20043;-60
2023/01/12 00:13:37;;;;;;;22.08;3.88;;;7.80;99.90;;;;;;5094020;28;20040;-61
2023/01/12 00:18:48;;;;;;;24.42;4.05;;;7.80;99.90;;;;;;5093840;28;20044;-60
2023/01/12 00:21:16;;;;;;;18.25;4.07;;;8.00;99.90;;;;;;5093789;28;20603;-61
2023/01/12 00:23:42;;;;;;;25.85;3.80;;;7.90;99.90;;;;;;5093839;28;20051;-61
2023/01/12 00:26:08;;;;;;;34.17;6.18;;;7.90;99.90;;;;;;5093587;28;20538;-61
2023/01/12 00:28:35;;;;;;;24.85;3.38;;;7.90;99.90;;;;;;5093727;28;20461;-61
2023/01/12 00:31:02;;;;;;;21.95;4.47;;;8.00;99.90;;;;;;5093935;28;20036;-61
2023/01/12 00:33:28;;;;;;;24.85;4.05;;;8.00;99.90;;;;;;5093759;28;20498;-61
2023/01/12 00:35:53;;;;;;;24.52;3.75;;;8.00;99.90;;;;;;5093962;28;20466;-61
2023/01/12 00:38:19;;;;;;;27.77;4.55;;;8.00;99.90;;;;;;5093624;28;20115;-60
2023/01/12 00:40:45;;;;;;;27.77;3.92;;;8.10;99.90;;;;;;5093543;28;20048;-60
2023/01/12 00:45:54;;;;;;;29.45;4.45;;;8.10;99.90;;;;;;5093452;28;20119;-60
2023/01/12 00:48:20;;;;;;;28.75;4.30;;;8.10;99.90;;;;;;5092172;28;20513;-61
2023/01/12 00:50:47;;;;;;;22.15;4.07;;;8.10;99.90;;;;;;5093362;28;20036;-62
2023/01/12 00:53:13;;;;;;;22.80;3.95;;;8.10;99.90;;;;;;5093200;28;20090;-61
2023/01/12 00:55:38;;;;;;;25.33;4.70;;;8.10;99.90;;;;;;5093536;28;20040;-61
2023/01/12 00:58:04;;;;;;;22.52;3.88;;;8.10;99.90;;;;;;5093085;28;20047;-60
2023/01/12 01:00:30;;;;;;;23.52;4.15;;;8.10;99.90;;;;;;5093205;28;20119;-60
2023/01/12 01:02:56;;;;;;;23.92;4.25;;;8.10;99.90;;;;;;5091988;28;20123;-61
2023/01/12 01:05:22;;;;;;;21.02;4.13;;;8.30;99.90;;;;;;5092989;28;20068;-62
2023/01/12 01:07:47;;;;;;;22.30;3.60;;;8.20;99.90;;;;;;5092708;28;20430;-60
2023/01/12 01:10:14;;;;;;;19.58;4.80;;;8.20;99.90;;;;;;5092807;28;20048;-60
2023/01/12 01:12:41;;;;;;;21.35;3.83;;;8.20;99.90;;;;;;5091972;28;20052;-61
2023/01/12 01:15:07;;;;;;;24.73;4.45;;;8.20;99.90;;;;;;5093266;28;20039;-60
2023/01/12 01:17:33;;;;;;;24.33;3.65;;;8.20;99.90;;;;;;5093089;28;20459;-60
2023/01/12 01:19:58;;;;;;;20.00;3.30;;;8.20;99.90;;;;;;5092811;28;20036;-61
2023/01/12 01:22:24;;;;;;;23.02;3.58;;;8.20;99.90;;;;;;5092645;28;20032;-61
2023/01/12 01:24:50;;;;;;;24.67;4.25;;;8.30;99.90;;;;;;5092443;28;20040;-61
2023/01/12 01:27:15;;;;;;;17.48;4.00;;;8.30;99.90;;;;;;5091462;28;20076;-60
2023/01/12 01:29:41;;;;;;;18.55;3.47;;;8.30;99.90;;;;;;5092536;28;20082;-62
2023/01/12 01:32:07;;;;;;;20.90;3.30;;;8.20;99.90;;;;;;5092555;28;20040;-61
2023/01/12 01:34:33;;;;;;;26.42;3.72;;;8.20;99.90;;;;;;5092562;28;20429;-61
2023/01/12 01:36:59;;;;;;;31.02;4.40;;;8.20;99.90;;;;;;5092545;28;20047;-62
2023/01/12 01:39:25;;;;;;;18.45;3.75;;;8.10;99.90;;;;;;5092355;28;20040;-61
2023/01/12 01:41:50;;;;;;;27.17;5.40;;;8.10;99.90;;;;;;5092633;28;20482;-60
2023/01/12 01:44:28;;;;;;;21.20;3.67;;;8.10;99.90;;;;;;5092481;28;20036;-59
2023/01/12 01:47:06;;;;;;;31.33;4.18;;;8.20;99.90;;;;;;5092090;28;20040;-61
2023/01/12 01:49:39;;;;;;;25.25;3.67;;;8.20;99.90;;;;;;5092235;28;20078;-61
2023/01/12 01:52:15;;;;;;;22.95;4.40;;;8.10;99.90;;;;;;5092136;28;20031;-60
2023/01/12 01:54:46;;;;;;;25.02;4.78;;;8.10;99.90;;;;;;5092337;28;20036;-60
2023/01/12 01:57:13;;;;;;;27.02;3.95;;;8.20;99.90;;;;;;5092179;28;20046;-60
2023/01/12 01:59:53;;;;;;;20.17;4.22;;;8.20;99.90;;;;;;5090904;28;20466;-60
2023/01/12 02:02:18;;;;;;;30.05;5.03;;;8.30;99.90;;;;;;5091961;28;20059;-60
2023/01/12 02:04:44;;;;;;;26.33;4.15;;;8.30;99.90;;;;;;5092104;28;20471;-61
2023/01/12 02:07:11;;;;;;;24.85;4.10;;;8.20;99.90;;;;;;5091924;28;20036;-61
2023/01/12 02:09:37;;;;;;;32.75;5.88;;;8.30;99.90;;;;;;5091912;28;20044;-60
2023/01/12 02:17:46;;;;;;;18.08;3.55;;;8.30;99.90;;;;;;5091828;28;20582;-61
2023/01/12 02:20:45;;;;;;;22.55;3.72;;;8.40;99.90;;;;;;5092055;28;20561;-60
2023/01/12 02:23:38;;;;;;;26.92;4.28;;;8.40;99.90;;;;;;5091695;28;20036;-61
2023/01/12 02:26:21;;;;;;;25.25;5.22;;;8.30;99.90;;;;;;5091731;28;20569;-62
2023/01/12 02:29:33;;;;;;;24.73;3.67;;;8.40;99.90;;;;;;5091825;28;20036;-61
2023/01/12 02:32:23;;;;;;;23.02;3.95;;;8.40;99.90;;;;;;5069204;28;20044;-61
2023/01/12 02:35:26;;;;;;;26.15;4.60;;;8.50;99.90;;;;;;5069194;28;20112;-61
2023/01/12 02:38:02;;;;;;;28.75;4.20;;;8.50;99.90;;;;;;5069239;28;20060;-61
2023/01/12 02:40:45;;;;;;;34.15;4.57;;;8.60;99.90;;;;;;5069349;28;20637;-60
2023/01/12 02:43:19;;;;;;;30.35;4.53;;;8.40;99.90;;;;;;5069180;28;20179;-60
2023/01/12 02:45:57;;;;;;;28.42;4.60;;;8.40;99.90;;;;;;5069438;28;20052;-61
2023/01/12 02:48:55;;;;;;;26.13;4.97;;;8.50;99.90;;;;;;5052094;28;20055;-60
2023/01/12 02:51:32;;;;;;;29.05;4.47;;;8.40;99.90;;;;;;5009742;28;20058;-61
2023/01/12 02:54:03;;;;;;;24.00;4.03;;;8.40;99.90;;;;;;5009529;28;20041;-61
2023/01/12 02:56:35;;;;;;;22.77;4.75;;;8.50;99.90;;;;;;5009376;28;20520;-61
2023/01/12 02:59:20;;;;;;;24.38;4.43;;;8.40;99.90;;;;;;5009538;28;20076;-61
2023/01/12 03:01:50;;;;;;;23.48;4.47;;;8.60;99.90;;;;;;5009361;28;20486;-61
2023/01/12 03:04:16;;;;;;;;;;;8.90;99.90;;;;;;5009720;28;20054;-61
2023/01/12 03:06:57;;;;;;;25.10;4.55;;;8.50;99.90;;;;;;5009375;28;19921;-61
2023/01/12 03:09:48;;;;;;;24.67;5.03;;;8.50;99.90;;;;;;5041616;28;20075;-62
2023/01/12 03:12:25;;;;;;;21.33;3.95;;;8.50;99.90;;;;;;5049042;28;20525;-61
2023/01/12 03:14:54;;;;;;;25.33;4.40;;;8.50;99.90;;;;;;5048906;28;20049;-61
2023/01/12 03:17:43;;;;;;;25.30;4.53;;;8.50;99.90;;;;;;5048880;28;20075;-61
2023/01/12 03:20:16;;;;;;;25.38;4.57;;;8.60;99.90;;;;;;5009212;28;20069;-61
2023/01/12 03:22:42;;;;;;;26.10;4.90;;;8.70;99.90;;;;;;5009207;28;20133;-61
2023/01/12 03:25:13;;;;;;;27.40;4.05;;;8.50;99.90;;;;;;5009711;28;20115;-61
2023/01/12 03:27:43;;;;;;;25.70;4.72;;;8.70;99.90;;;;;;5014336;28;20053;-60
2023/01/12 03:30:16;;;;;;;29.40;5.57;;;8.60;99.90;;;;;;5052442;28;20499;-61
2023/01/12 03:32:42;;;;;;;23.65;5.03;;;8.60;99.90;;;;;;5052252;28;20044;-61
2023/01/12 03:35:08;;;;;;;25.65;4.85;;;8.80;99.90;;;;;;5052367;28;20037;-61
2023/01/12 03:37:41;;;;;;;25.27;5.32;;;8.60;99.90;;;;;;5052439;28;20059;-60
2023/01/12 03:40:24;;;;;;;22.65;4.13;;;8.60;99.90;;;;;;5052270;28;20119;-60
2023/01/12 03:43:02;;;;;;;15.85;3.40;;;8.80;99.90;;;;;;5052225;28;20483;-61
2023/01/12 03:45:40;;;;;;;16.95;3.67;;;8.70;99.90;;;;;;5052086;28;20159;-60
2023/01/12 03:48:35;;;;;;;18.88;4.03;;;8.70;99.90;;;;;;5052099;28;20047;-61
2023/01/12 03:51:12;;;;;;;19.80;3.50;;;8.70;99.90;;;;;;5051994;28;20041;-61
2023/01/12 03:53:40;;;;;;;24.38;3.47;;;8.80;99.90;;;;;;5052211;28;20088;-61
2023/01/12 03:56:09;;;;;;;26.13;3.45;;;8.70;99.90;;;;;;5054624;28;20059;-60
2023/01/12 03:58:34;;;;;;;20.00;3.88;;;8.80;99.90;;;;;;5094268;28;20044;-60
2023/01/12 04:01:01;;;;;;;26.88;3.92;;;8.70;99.90;;;;;;5094536;28;20043;-60
2023/01/12 04:03:27;;;;;;;17.77;4.05;;;8.80;99.90;;;;;;5094627;28;20562;-61
2023/01/12 04:05:53;;;;;;;21.80;4.07;;;8.70;99.90;;;;;;5094167;28;20044;-61
2023/01/12 04:08:19;;;;;;;25.13;4.47;;;8.80;99.90;;;;;;5094002;28;20050;-60
2023/01/12 04:10:44;;;;;;;25.63;5.80;;;8.80;99.90;;;;;;5093961;28;20410;-60
2023/01/12 04:13:10;;;;;;;20.33;3.40;;;8.80;99.90;;;;;;5093955;28;20043;-61
2023/01/12 04:15:41;;;;;;;23.63;4.05;;;8.70;99.90;;;;;;5093939;28;20043;-61
2023/01/12 04:18:07;;;;;;;21.60;4.45;;;8.90;99.90;;;;;;5093964;28;20028;-61
2023/01/12 04:20:33;;;;;;;25.08;3.92;;;8.70;99.90;;;;;;5093952;28;20089;-60
2023/01/12 04:22:58;;;;;;;23.38;4.03;;;8.80;99.90;;;;;;5093980;28;20436;-61
2023/01/12 04:25:24;;;;;;;23.25;5.25;;;8.90;99.90;;;;;;5093785;28;20032;-60
2023/01/12 04:27:55;;;;;;;19.88;3.47;;;8.80;99.90;;;;;;5093703;28;20062;-60
2023/01/12 04:30:25;;;;;;;19.17;3.28;;;8.90;99.90;;;;;;5093774;28;20039;-60
2023/01/12 04:32:51;;;;;;;20.88;3.90;;;8.80;99.90;;;;;;5094084;28;20036;-61
2023/01/12 04:35:17;;;;;;;20.15;4.35;;;9.00;99.90;;;;;;5093947;28;20036;-60
2023/01/12 04:37:43;;;;;;;17.83;3.15;;;8.90;99.90;;;;;;5093509;28;20424;-60
2023/01/12 04:40:12;;;;;;;13.43;2.38;;;8.80;99.90;;;;;;5093517;28;20115;-60
2023/01/12 04:43:03;;;;;;;8.98;2.00;;;8.80;99.90;;;;;;5093584;28;20065;-60
2023/01/12 04:45:34;;;;;;;13.13;2.60;;;8.90;99.90;;;;;;5093496;28;20093;-61
2023/01/12 04:48:05;;;;;;;10.65;2.00;;;8.70;99.90;;;;;;5093309;28;20135;-62
2023/01/12 04:50:31;;;;;;;11.75;2.03;;;8.70;99.90;;;;;;5093405;28;20082;-61
2023/01/12 04:52:57;;;;;;;9.02;2.17;;;8.60;99.90;;;;;;5093194;28;20071;-61
2023/01/12 04:55:23;;;;;;;7.65;1.90;;;8.70;99.90;;;;;;5093179;28;20028;-60
2023/01/12 04:57:49;;;;;;;9.05;2.13;;;8.70;99.90;;;;;;5093191;28;20047;-60
2023/01/12 05:00:15;;;;;;;10.00;1.95;;;8.80;99.90;;;;;;5093245;28;20501;-60
2023/01/12 05:02:40;;;;;;;7.68;2.15;;;8.70;99.90;;;;;;5092926;28;20032;-60
2023/01/12 05:05:07;;;;;;;11.90;2.35;;;8.70;99.90;;;;;;5093341;28;20048;-60
2023/01/12 05:07:33;;;;;;;11.35;1.90;;;8.80;99.90;;;;;;5092878;28;20044;-60
2023/01/12 05:12:43;;;;;;;5.95;1.58;;;8.80;99.90;;;;;;5092944;28;20044;-60
2023/01/12 05:15:09;;;;;;;6.78;1.58;;;8.80;99.90;;;;;;5092919;28;20031;-60
2023/01/12 05:17:35;;;;;;;6.03;1.30;;;8.80;99.90;;;;;;5092839;28;20040;-61
2023/01/12 05:20:00;;;;;;;5.53;1.23;;;8.90;99.90;;;;;;5092799;28;20385;-60
2023/01/12 05:22:26;;;;;;;6.20;1.52;;;8.80;99.90;;;;;;5092659;28;20061;-60
2023/01/12 05:24:52;;;;;;;6.63;1.33;;;8.80;99.90;;;;;;5092697;28;20367;-61
2023/01/12 05:27:17;;;;;;;6.07;1.50;;;8.80;99.90;;;;;;5092700;28;20044;-61
2023/01/12 05:29:43;;;;;;;6.97;1.52;;;8.70;99.90;;;;;;5092632;28;20047;-61
2023/01/12 05:32:09;;;;;;;4.95;1.58;;;8.70;99.90;;;;;;5092457;28;20070;-61
2023/01/12 05:34:34;;;;;;;6.75;1.80;;;8.70;99.90;;;;;;5092415;28;20032;-60
2023/01/12 05:37:00;;;;;;;6.00;1.35;;;8.90;99.90;;;;;;5092297;28;20044;-60
2023/01/12 05:39:25;;;;;;;5.10;1.70;;;8.70;99.90;;;;;;5092595;28;20378;-61
2023/01/12 05:44:35;;;;;;;3.25;1.35;;;8.80;99.90;;;;;;5092430;28;20061;-60
2023/01/12 05:47:01;;;;;;;5.78;1.65;;;8.60;99.90;;;;;;5092227;28;20040;-61
2023/01/12 05:49:26;;;;;;;6.47;1.45;;;8.50;99.90;;;;;;5091472;28;20047;-61
2023/01/12 05:51:52;;;;;;;4.53;1.25;;;8.70;99.90;;;;;;5092320;28;20383;-60
2023/01/12 05:54:17;;;;;;;4.93;1.15;;;8.60;99.90;;;;;;5092319;28;20103;-60
2023/01/12 05:56:43;;;;;;;2.85;1.05;;;8.60;99.90;;;;;;5092122;28;20123;-61
2023/01/12 05:59:10;;;;;;;4.68;1.23;;;8.70;99.90;;;;;;5092156;28;20432;-61
2023/01/12 06:01:37;;;;;;;7.03;1.30;;;8.60;99.90;;;;;;5091657;28;20386;-61
2023/01/12 06:04:03;;;;;;;3.88;1.10;;;8.70;99.90;;;;;;5090966;28;20052;-61
2023/01/12 06:06:30;;;;;;;3.78;0.88;;;8.70;99.90;;;;;;5091988;28;20061;-60
2023/01/12 06:08:58;;;;;;;2.78;0.98;;;8.60;99.90;;;;;;5092014;28;20063;-60
2023/01/12 06:14:09;;;;;;;3.13;0.80;;;8.70;99.90;;;;;;5091834;28;20048;-61
2023/01/12 06:16:39;;;;;;;2.30;1.08;;;8.70;99.90;;;;;;5091859;28;20044;-60
2023/01/12 06:19:06;;;;;;;3.17;0.93;;;8.80;99.90;;;;;;5092017;28;20424;-61
2023/01/12 06:21:33;;;;;;;3.45;0.88;;;8.70;99.90;;;;;;5091771;28;20401;-60
2023/01/12 06:23:58;;;;;;;2.20;0.70;;;8.70;99.90;;;;;;5091647;28;20568;-60
2023/01/12 06:26:24;;;;;;;4.35;0.98;;;9.00;99.90;;;;;;5091802;28;20122;-61
2023/01/12 06:28:50;;;;;;;3.00;0.85;;;8.90;99.90;;;;;;5091688;28;20046;-62
2023/01/12 06:31:15;;;;;;;5.82;1.05;;;8.80;99.90;;;;;;5089119;28;20032;-61
2023/01/12 06:33:42;;;;;;;4.38;1.00;;;8.90;99.90;;;;;;5090147;28;20409;-61
2023/01/12 06:36:08;;;;;;;2.85;0.80;;;8.90;99.90;;;;;;5091311;28;20043;-61
2023/01/12 06:38:38;;;;;;;1.95;0.82;;;8.70;99.90;;;;;;5091668;28;20085;-61
2023/01/12 06:41:06;;;;;;;2.60;0.60;;;8.90;99.90;;;;;;5091676;28;20040;-61
2023/01/12 06:43:32;;;;;;;3.22;0.70;;;9.00;99.90;;;;;;5091394;28;20547;-60
2023/01/12 06:45:58;;;;;;;1.38;0.70;;;8.80;99.90;;;;;;5090744;28;20497;-61
2023/01/12 06:48:24;;;;;;;1.17;1.08;;;9.00;99.90;;;;;;5091540;28;20039;-61
2023/01/12 06:50:58;;;;;;;2.53;0.60;;;9.00;99.90;;;;;;5090235;28;20040;-61
2023/01/12 06:53:24;;;;;;;1.20;0.60;;;9.10;99.90;;;;;;5091547;28;20516;-60
2023/01/12 06:55:50;;;;;;;1.38;0.77;;;9.10;99.90;;;;;;5091456;28;20068;-60
2023/01/12 06:58:16;;;;;;;3.05;1.00;;;9.20;99.90;;;;;;5091360;28;20498;-61
2023/01/12 07:00:42;;;;;;;2.92;1.45;;;9.00;99.90;;;;;;5093926;28;20032;-60
2023/01/12 07:03:15;;;;;;;3.55;1.40;;;9.30;99.90;;;;;;5095600;28;20305;-60
2023/01/12 07:05:41;;;;;;;8.90;2.15;;;9.30;99.90;;;;;;5095411;28;20044;-60
2023/01/12 07:08:06;;;;;;;8.27;2.28;;;9.40;99.90;;;;;;5095192;28;20437;-62
2023/01/12 07:10:32;;;;;;;6.10;2.92;;;9.40;99.90;;;;;;5095041;28;20121;-62
2023/01/12 07:13:00;;;;;;;7.28;2.50;;;9.40;99.90;;;;;;5095434;28;20035;-61
2023/01/12 07:15:26;;;;;;;6.72;2.50;;;9.30;99.90;;;;;;5095166;28;20043;-61
2023/01/12 07:17:58;;;;;;;5.55;2.13;;;9.50;99.90;;;;;;5095268;28;20044;-60
2023/01/12 07:20:24;;;;;;;7.55;2.22;;;9.50;99.90;;;;;;5095195;28;20037;-60
2023/01/12 07:22:50;;;;;;;11.98;2.95;;;9.40;99.90;;;;;;5094956;28;20040;-61
2023/01/12 07:25:16;;;;;;;10.43;2.50;;;9.70;99.90;;;;;;5094876;28;20447;-60
2023/01/12 07:27:53;;;;;;;9.25;2.40;;;9.80;99.90;;;;;;5095016;28;20057;-61
2023/01/12 07:30:20;;;;;;;8.88;2.28;;;9.90;99.90;;;;;;5094497;28;20047;-62
2023/01/12 07:32:49;;;;;;;12.85;3.40;;;9.90;99.90;;;;;;5093297;28;20039;-61
2023/01/12 07:35:15;;;;;;;10.75;2.70;;;9.90;99.90;;;;;;5093603;28;20406;-60
2023/01/12 07:37:49;;;;;;;12.75;3.50;;;9.70;99.90;;;;;;5094630;28;20036;-61
2023/01/12 07:40:15;;;;;;;12.80;2.38;;;9.80;99.90;;;;;;5094688;28;20115;-61
2023/01/12 07:42:41;;;;;;;14.82;3.08;;;10.00;99.90;;;;;;5094766;28;20047;-60
2023/01/12 07:45:07;;;;;;;18.30;3.10;;;10.00;99.90;;;;;;5094633;28;20036;-61
2023/01/12 07:47:33;;;;;;;19.00;3.25;;;10.10;99.90;;;;;;5094576;28;20513;-61
2023/01/12 07:49:58;;;;;;;20.77;4.18;;;10.20;99.90;;;;;;5094499;28;20040;-60
2023/01/12 07:52:24;;;;;;;15.27;3.47;;;10.00;99.90;;;;;;5094445;28;20032;-60
2023/01/12 07:54:49;;;;;;;22.27;3.63;;;10.20;99.90;;;;;;5094480;28;20040;-61
2023/01/12 07:57:15;;;;;;;21.48;3.63;;;10.30;99.90;;;;;;5094914;28;20398;-60
2023/01/12 07:59:41;;;;;;;20.52;3.80;;;10.20;99.90;;;;;;5094617;28;20378;-61
2023/01/12 08:02:15;;;;;;;19.38;2.92;;;10.10;99.90;;;;;;5093709;28;20036;-60
2023/01/12 08:04:44;;;;;;;18.40;3.40;;;10.30;99.90;;;;;;5094452;28;20049;-60
2023/01/12 08:07:10;;;;;;;15.30;3.33;;;10.40;99.90;;;;;;5094296;28;20044;-58
2023/01/12 08:09:36;;;;;;;19.73;4.15;;;10.30;99.90;;;;;;5094103;28;20063;-59
2023/01/12 08:12:01;;;;;;;23.23;3.42;;;10.60;99.90;;;;;;5093731;28;20044;-59
2023/01/12 08:14:32;;;;;;;26.65;4.10;;;10.50;99.90;;;;;;5093990;28;20040;-59
2023/01/12 08:17:00;;;;;;;28.70;4.40;;;10.70;99.90;;;;;;5092772;28;20043;-59
2023/01/12 08:19:35;;;;;;;16.20;3.60;;;10.80;99.90;;;;;;5093044;28;20066;-58
2023/01/12 08:22:02;;;;;;;29.48;4.90;;;10.70;99.90;;;;;;5093998;28;20036;-58
2023/01/12 08:24:33;;;;;;;18.30;3.00;;;10.60;99.90;;;;;;5092902;28;20055;-59
2023/01/12 08:27:03;;;;;;;16.05;3.92;;;10.50;99.90;;;;;;5092829;28;20070;-58
2023/01/12 08:29:39;;;;;;;16.98;3.38;;;10.80;99.90;;;;;;5093847;28;20032;-58
2023/01/12 08:32:05;;;;;;;21.35;4.00;;;10.90;99.90;;;;;;5093531;28;20119;-58
2023/01/12 08:34:33;;;;;;;22.50;3.60;;;10.90;99.90;;;;;;5093607;28;20085;-58
2023/01/12 08:37:02;;;;;;;19.15;3.83;;;10.70;99.90;;;;;;5093798;28;20036;-58
2023/01/12 08:39:28;;;;;;;;;;;10.60;99.90;;;;;;5094060;28;20044;-59
2023/01/12 08:41:54;;;;;;;18.42;3.17;;;10.80;99.90;;;;;;5093549;28;20365;-59
2023/01/12 08:44:20;;;;;;;16.60;3.08;;;10.90;99.90;;;;;;5093273;28;20036;-58
2023/01/12 08:46:48;;;;;;;24.65;4.55;;;10.90;99.90;;;;;;5093633;28;20080;-58
2023/01/12 08:49:16;;;;;;;20.20;4.35;;;10.90;99.90;;;;;;5093384;28;20042;-58
2023/01/12 08:51:42;;;;;;;17.45;3.40;;;10.90;99.90;;;;;;5093334;28;20039;-58
2023/01/12 08:54:12;;;;;;;20.88;4.53;;;11.10;99.90;;;;;;5093442;28;20372;-59
2023/01/12 08:56:38;;;;;;;13.40;3.60;;;11.10;99.90;;;;;;5093276;28;20036;-58
2023/01/12 08:59:04;;;;;;;20.50;2.92;;;11.00;99.90;;;;;;5093131;28;20036;-58
2023/01/12 09:01:29;;;;;;;18.50;3.53;;;10.80;99.90;;;;;;5093253;28;20072;-58
2023/01/12 09:03:56;;;;;;;18.38;4.13;;;10.80;99.90;;;;;;5093256;28;20070;-58
2023/01/12 09:06:28;;;;;;;12.45;2.72;;;10.80;99.90;;;;;;5092844;28;20395;-58
2023/01/12 09:09:03;;;;;;;15.45;2.75;;;10.90;99.90;;;;;;5093035;28;20073;-58
2023/01/12 09:11:30;;;;;;;19.65;3.55;;;11.00;99.90;;;;;;5092716;28;20056;-58
2023/01/12 09:13:57;;;;;;;16.08;3.28;;;11.00;99.90;;;;;;5093174;28;20367;-58
2023/01/12 09:16:24;;;;;;;20.45;3.55;;;10.80;99.90;;;;;;5092957;28;20044;-58
2023/01/12 09:18:50;;;;;;;13.73;2.92;;;11.00;99.90;;;;;;5092952;28;20072;-58
2023/01/12 09:21:18;;;;;;;22.98;4.47;;;10.90;99.90;;;;;;5091894;28;20083;-57
2023/01/12 09:23:44;;;;;;;16.02;3.28;;;11.00;99.90;;;;;;5091769;28;20075;-59
2023/01/12 09:26:12;;;;;;;16.63;3.55;;;11.00;99.90;;;;;;5092820;28;20044;-58
2023/01/12 09:28:39;;;;;;;16.80;3.95;;;11.10;99.90;;;;;;5090856;28;20446;-58
2023/01/12 09:31:09;;;;;;;16.63;3.63;;;10.90;99.90;;;;;;5092816;28;20040;-58
2023/01/12 09:33:37;;;;;;;14.65;3.13;;;11.20;99.90;;;;;;5092673;28;20039;-59
2023/01/12 09:36:11;;;;;;;17.15;3.20;;;11.00;99.90;;;;;;5092617;28;20456;-58
2023/01/12 09:38:38;;;;;;;16.80;3.63;;;10.80;99.90;;;;;;5092357;28;20528;-58
2023/01/12 09:47:18;;;;;;;15.07;2.78;;;11.20;99.90;;;;;;5092389;28;20052;-58
2023/01/12 09:49:52;;;;;;;14.25;2.95;;;11.10;99.90;;;;;;5092453;28;20046;-58
2023/01/12 09:52:26;;;;;;;10.93;2.60;;;11.10;99.90;;;;;;5092322;28;20051;-59
2023/01/12 09:54:52;;;;;;;16.15;3.05;;;11.30;99.90;;;;;;5092279;28;20051;-59
2023/01/12 09:57:35;;;;;;;15.52;2.63;;;11.30;99.90;;;;;;5092496;28;20052;-58
2023/01/12 10:00:07;;;;;;;15.43;2.83;;;11.50;99.90;;;;;;5090938;28;20050;-58
2023/01/12 10:02:36;;;;;;;16.95;2.90;;;11.40;99.90;;;;;;5092306;28;20043;-58
2023/01/12 10:05:12;;;;;;;19.50;2.97;;;11.20;99.90;;;;;;5092332;28;20044;-58
2023/01/12 10:07:38;;;;;;;19.98;3.95;;;11.30;99.90;;;;;;5090973;28;20055;-58
2023/01/12 10:10:04;;;;;;;23.65;4.20;;;11.20;99.90;;;;;;5092065;28;20090;-59
2023/01/12 10:12:40;;;;;;;22.00;3.53;;;11.20;99.90;;;;;;5092047;28;20044;-58
2023/01/12 10:15:15;;;;;;;15.40;3.10;;;11.10;99.90;;;;;;5092017;28;20494;-58
2023/01/12 10:18:18;;;;;;;22.27;4.03;;;11.20;99.90;;;;;;5091895;28;20051;-59
2023/01/12 10:20:44;;;;;;;19.90;3.42;;;11.20;99.90;;;;;;5092205;28;20105;-58
2023/01/12 10:23:14;;;;;;;22.55;3.22;;;10.90;99.90;;;;;;5092007;28;20474;-58
2023/01/12 10:25:47;;;;;;;16.70;3.17;;;11.10;99.90;;;;;;5091076;28;20068;-58
2023/01/12 10:28:13;;;;;;;18.25;2.90;;;11.30;99.90;;;;;;5091644;28;20109;-58
2023/01/12 10:30:40;;;;;;;23.88;3.22;;;11.20;99.90;;;;;;5091653;28;20040;-58
2023/01/12 10:33:23;;;;;;;16.58;3.30;;;11.00;99.90;;;;;;5091949;28;20038;-58
2023/01/12 10:36:01;;;;;;;17.70;3.60;;;11.20;99.90;;;;;;5095688;28;20046;-58
2023/01/12 10:38:27;;;;;;;15.10;3.00;;;11.50;99.90;;;;;;5095547;28;20058;-58
2023/01/12 10:41:16;;;;;;;11.30;2.05;;;11.40;99.90;;;;;;5095832;28;20493;-59
2023/01/12 10:43:45;;;;;;;14.50;2.72;;;11.40;99.90;;;;;;5095991;28;20040;-58
2023/01/12 10:46:20;;;;;;;15.93;3.13;;;11.30;99.90;;;;;;5095760;28;20040;-58
2023/01/12 10:48:48;;;;;;;14.48;2.85;;;11.20;99.90;;;;;;5096071;28;20095;-58
2023/01/12 10:51:29;;;;;;;13.45;2.83;;;11.20;99.90;;;;;;5095589;28;20540;-59
2023/01/12 10:54:07;;;;;;;17.30;3.63;;;11.10;99.90;;;;;;5095893;28;20042;-58
2023/01/12 10:56:38;;;;;;;17.27;3.90;;;11.30;99.90;;;;;;5095722;28;20054;-58
2023/01/12 10:59:12;;;;;;;24.25;4.22;;;11.00;99.90;;;;;;5094646;28;20123;-58
2023/01/12 11:02:04;;;;;;;18.70;3.38;;;11.20;99.90;;;;;;5094780;28;20158;-58
2023/01/12 11:04:35;;;;;;;17.98;2.67;;;11.20;99.90;;;;;;5089149;28;20055;-58
2023/01/12 11:07:03;;;;;;;16.63;3.05;;;11.00;99.90;;;;;;5094630;28;20616;-58
2023/01/12 11:09:30;;;;;;;12.38;2.22;;;11.20;99.90;;;;;;5095286;28;20048;-58
2023/01/12 11:12:02;;;;;;;15.73;2.90;;;11.10;99.90;;;;;;5095186;28;20050;-58
2023/01/12 11:14:36;;;;;;;20.25;3.90;;;11.20;99.90;;;;;;5095206;28;20036;-58
2023/01/12 11:17:20;;;;;;;16.58;3.00;;;11.00;99.90;;;;;;5095282;28;20039;-58
2023/01/12 11:19:47;;;;;;;15.48;2.70;;;11.10;99.90;;;;;;5095264;28;20039;-58
2023/01/12 11:22:26;;;;;;;21.17;4.40;;;11.10;99.90;;;;;;5095064;28;20044;-58
2023/01/12 11:24:58;;;;;;;16.15;2.92;;;11.30;99.90;;;;;;5095131;28;20051;-58
2023/01/12 11:27:37;;;;;;;18.52;3.22;;;11.30;99.90;;;;;;5095069;28;20085;-58
2023/01/12 11:30:14;;;;;;;20.17;3.58;;;11.50;99.90;;;;;;5095224;28;20059;-58
2023/01/12 11:33:07;;;;;;;17.70;3.15;;;11.60;99.90;;;;;;5093956;28;20043;-58
2023/01/12 11:36:08;;;;;;;17.30;2.63;;;11.60;99.90;;;;;;5094938;28;20032;-58
2023/01/12 11:38:50;;;;;;;20.42;4.05;;;11.60;99.90;;;;;;5094867;28;20118;-58
2023/01/12 11:41:24;;;;;;;11.82;2.92;;;11.60;99.90;;;;;;5094978;28;20055;-59
2023/01/12 11:44:01;;;;;;;14.38;3.15;;;11.70;99.90;;;;;;5094797;28;20036;-58
2023/01/12 11:46:41;;;;;;;17.77;2.95;;;11.70;99.90;;;;;;5093490;28;20437;-58
2023/01/12 11:49:14;;;;;;;21.00;3.33;;;11.70;99.90;;;;;;5094547;28;20032;-58
2023/01/12 11:51:40;;;;;;;17.48;4.18;;;11.70;99.90;;;;;;5094459;28;20040;-58
2023/01/12 11:54:13;;;;;;;17.55;3.00;;;11.80;99.90;;;;;;5094228;28;20032;-58
2023/01/12 11:56:49;;;;;;;17.33;3.50;;;11.80;99.90;;;;;;5094540;28;20050;-58
2023/01/12 11:59:20;;;;;;;14.10;2.90;;;11.90;99.90;;;;;;5094383;28;20035;-58
2023/01/12 12:02:28;;;;;;;12.68;2.75;;;11.90;99.90;;;;;;5093863;28;20036;-58
2023/01/12 12:05:08;;;;;;;17.17;3.05;;;12.00;99.90;;;;;;5035165;28;20071;-59
2023/01/12 12:07:45;;;;;;;9.95;2.15;;;12.10;99.90;;;;;;5051665;28;20434;-58
2023/01/12 12:10:39;;;;;;;14.95;3.10;;;12.00;99.90;;;;;;5068221;28;20402;-58
2023/01/12 12:13:17;;;;;;;12.93;3.25;;;12.00;99.90;;;;;;5051893;28;20052;-58
2023/01/12 12:16:01;;;;;;;13.82;2.45;;;12.10;99.90;;;;;;5051642;28;20059;-58
2023/01/12 12:19:14;;;;;;;10.45;2.03;;;11.90;99.90;;;;;;5051530;28;20040;-58
2023/01/12 12:21:47;;;;;;;17.33;2.92;;;12.00;99.90;;;;;;4992234;28;20445;-58
2023/01/12 12:24:15;;;;;;;12.57;2.97;;;11.90;99.90;;;;;;4992265;28;20049;-59
2023/01/12 12:26:46;;;;;;;12.85;2.90;;;11.80;99.90;;;;;;4992128;28;20050;-58
2023/01/12 12:29:26;;;;;;;17.92;3.05;;;11.80;99.90;;;;;;4992595;28;20147;-58
2023/01/12 12:32:10;;;;;;;13.15;2.72;;;11.80;99.90;;;;;;4992242;28;20125;-59
2023/01/12 12:34:57;;;;;;;17.30;3.17;;;11.80;99.90;;;;;;4991948;28;20121;-59
2023/01/12 12:37:43;;;;;;;15.88;3.53;;;11.90;99.90;;;;;;4991978;28;20485;-58
2023/01/12 12:40:22;;;;;;;14.38;3.05;;;12.00;99.90;;;;;;4992102;28;20093;-58
2023/01/12 12:46:07;;;;;;;10.23;2.22;;;11.70;99.90;;;;;;5051108;28;20288;-58
2023/01/12 12:49:03;;;;;;;19.98;2.85;;;11.50;99.90;;;;;;5051055;28;20045;-58
2023/01/12 12:51:32;;;;;;;17.75;3.33;;;11.60;99.90;;;;;;5050940;28;20049;-59
2023/01/12 12:54:01;;;;;;;19.27;2.97;;;11.70;99.90;;;;;;5051036;28;20140;-59
2023/01/12 12:56:29;;;;;;;18.08;3.45;;;11.60;99.90;;;;;;5050851;28;20571;-58
2023/01/12 12:58:56;;;;;;;13.55;2.60;;;11.50;99.90;;;;;;5091873;28;20483;-59
2023/01/12 13:01:22;;;;;;;22.40;3.65;;;11.70;99.90;;;;;;5093386;28;20101;-59
2023/01/12 13:04:02;;;;;;;19.67;3.58;;;11.60;99.90;;;;;;5093057;28;20493;-59
2023/01/12 13:06:31;;;;;;;18.85;3.17;;;11.70;99.90;;;;;;5093069;28;20059;-59
2023/01/12 13:09:04;;;;;;;17.90;2.88;;;11.70;99.90;;;;;;5093000;28;20028;-58
2023/01/12 13:11:53;;;;;;;15.70;3.17;;;11.70;99.90;;;;;;5093158;28;20059;-58
2023/01/12 13:14:30;;;;;;;18.08;3.38;;;11.70;99.90;;;;;;5093055;28;20046;-59
2023/01/12 13:17:04;;;;;;;20.58;4.10;;;11.50;99.90;;;;;;5092984;28;20474;-58
2023/01/12 13:19:41;;;;;;;17.30;3.08;;;11.70;99.90;;;;;;5092781;28;20036;-59
2023/01/12 13:22:26;;;;;;;20.10;3.70;;;11.50;99.90;;;;;;5092923;28;20154;-59
2023/01/12 13:24:53;;;;;;;19.52;3.80;;;11.60;99.90;;;;;;5092911;28;20044;-59
2023/01/12 13:27:47;;;;;;;21.05;3.45;;;11.70;99.90;;;;;;5092763;28;20510;-58
2023/01/12 13:30:27;;;;;;;24.77;3.42;;;11.70;99.90;;;;;;5092630;28;20394;-59
2023/01/12 13:32:59;;;;;;;20.67;3.90;;;11.80;99.90;;;;;;5091427;28;20094;-60
2023/01/12 13:35:48;;;;;;;19.08;4.82;;;11.60;99.90;;;;;;5092598;28;20036;-58